Flight Track Log - Related Links

Times and Time Zones

All times are in EDT time to prevent confusion due to time zone crossing. See the AWI3778 flight status page for this flight to view local times or setup timezone preferences in your user account.

Time Position Orientation Groundspeed Altitude Reporting Facility
EDT Latitude Longitude Course Direction KTS MPH feet Rate Location/Type
Sat 02:40:05 PM 30.4736 -81.6753 19° North 157 181 900  Level Jacksonville Center
Sat 02:41:12 PM 30.5192 -81.6361 37° Northeast 234 269 3,700 2,621 Climbing Jacksonville Center
Sat 02:41:48 PM 30.5547 -81.6453 347° North 222 255 5,400 2,688 Climbing Jacksonville Center
Sat 02:42:00 PM 30.6874 -81.4597 44° Northeast  Level FlightAware Approximate
Sat 02:42:48 PM 30.6197 -81.6592 350° North 218 251 8,000  Level Jacksonville Center
Sat 02:43:00 PM 30.7542 -81.3833 44° Northeast  Level FlightAware Approximate
Sat 02:43:48 PM 30.6864 -81.6389 15° North 256 295 10,400  Level Jacksonville Center
Sat 02:44:00 PM 30.8277 -81.3167 33° Northeast  Level FlightAware Approximate
Sat 02:44:48 PM 30.7508 -81.6089 22° Northeast 250 288 12,800  Level Jacksonville Center
Sat 02:45:00 PM 30.9000 -81.2633 19° North  Level FlightAware Approximate
Sat 02:45:48 PM 30.8214 -81.5767 21° North 256 295 14,700  Level Jacksonville Center
Sat 02:46:48 PM 30.8942 -81.5442 21° North 263 303 15,800 900 Climbing Jacksonville Center
Sat 02:47:48 PM 30.9772 -81.5067 21° North 290 334 16,500 800 Climbing Jacksonville Center
Sat 02:48:48 PM 31.0708 -81.4714 18° North 324 373 17,400 1,000 Climbing Jacksonville Center
Sat 02:49:48 PM 31.1619 -81.4164 27° Northeast 356 410 18,500 1,050 Climbing Jacksonville Center
Sat 02:50:48 PM 31.2556 -81.3689 23° Northeast 356 410 19,500 1,000 Climbing Jacksonville Center
Sat 02:51:48 PM 31.3444 -81.3114 29° Northeast 360 414 20,500 1,000 Climbing Jacksonville Center
Sat 02:52:48 PM 31.4467 -81.2928 North 360 414 21,500 850 Climbing Jacksonville Center
Sat 02:53:48 PM 31.5403 -81.2789 North 376 433 22,200 800 Climbing Jacksonville Center
Sat 02:54:48 PM 31.6572 -81.2647 North 376 433 23,100 750 Climbing Jacksonville Center
Sat 02:55:48 PM 31.7633 -81.2506 North 387 445 23,700 650 Climbing Jacksonville Center
Sat 02:56:48 PM 31.8614 -81.2367 North 387 445 24,400 650 Climbing Jacksonville Center
Sat 02:57:48 PM 31.9739 -81.2197 North 387 445 25,000 650 Climbing Jacksonville Center
Sat 02:58:48 PM 32.0711 -81.1494 31° Northeast 392 451 25,700 700 Climbing Jacksonville Center
Sat 02:59:48 PM 32.1783 -81.0614 35° Northeast 407 468 26,400 600 Climbing Jacksonville Center
Sat 03:00:48 PM 32.2733 -80.9858 34° Northeast 419 482 26,900 450 Climbing Jacksonville Center
Sat 03:01:48 PM 32.3597 -80.9103 36° Northeast 425 489 27,300 450 Climbing Jacksonville Center
Sat 03:02:48 PM 32.4586 -80.8244 36° Northeast 430 495 27,800 500 Climbing Jacksonville Center
Sat 03:03:48 PM 32.5594 -80.7408 35° Northeast 435 501 28,300 500 Climbing Jacksonville Center
Sat 03:05:00 PM 32.6442 -80.6244 35° Northeast  Level FlightAware Approximate
Sat 03:05:48 PM 32.7569 -80.5731 35° Northeast 440 506 29,300  Level Jacksonville Center
Sat 03:06:48 PM 32.8578 -80.4889 35° Northeast 440 506 29,800 550 Climbing Jacksonville Center
Sat 03:07:48 PM 32.9747 -80.3917 35° Northeast 463 533 30,400 550 Climbing Jacksonville Center
Sat 03:08:48 PM 33.0692 -80.3072 37° Northeast 443 510 30,900 300 Climbing Jacksonville Center
Sat 03:09:48 PM 33.1694 -80.2225 35° Northeast 443 510 31,000 50 Climbing Jacksonville Center
Sat 03:10:48 PM 33.2742 -80.1347 35° Northeast 448 516 31,000 -50 Level Jacksonville Center
Sat 03:11:48 PM 33.3744 -80.0472 36° Northeast 448 516 30,900  Descending Jacksonville Center
Sat 03:12:48 PM 33.4747 -79.9592 36° Northeast 448 516 31,000 50 Climbing Jacksonville Center
Sat 03:13:48 PM 33.5750 -79.8714 36° Northeast 448 516 31,000  Level Jacksonville Center
Sat 03:14:48 PM 33.6750 -79.7831 36° Northeast 448 516 31,000  Level Jacksonville Center
Sat 03:15:48 PM 33.7772 -79.6944 36° Northeast 448 516 31,000  Level Jacksonville Center
Sat 03:16:48 PM 33.8792 -79.6056 36° Northeast 448 516 31,000  Level Jacksonville Center
Sat 03:17:48 PM 33.9789 -79.5167 36° Northeast 448 516 31,000  Level Jacksonville Center
Sat 03:19:20 PM 34.1153 -79.3994 35° Northeast 433 498 31,000  Level Washington Center
Sat 03:20:20 PM 34.2161 -79.3111 36° Northeast 439 505 31,000  Level Washington Center
Sat 03:21:18 PM 34.3381 -79.2211 31° Northeast 450 518 31,000  Level Washington Center
Sat 03:22:18 PM 34.4525 -79.1583 24° Northeast 450 518 31,000  Level Washington Center
Sat 03:23:19 PM 34.5650 -79.0925 26° Northeast 450 518 31,000  Level Washington Center
Sat 03:24:20 PM 34.6775 -79.0267 26° Northeast 450 518 31,000  Level Washington Center
Sat 03:25:18 PM 34.7900 -78.9606 26° Northeast 450 518 31,000  Level Washington Center
Sat 03:26:19 PM 34.9067 -78.8944 25° Northeast 450 518 31,000  Level Washington Center
Sat 03:27:20 PM 35.0147 -78.8306 26° Northeast 450 518 31,000  Level Washington Center
Sat 03:28:18 PM 35.1250 -78.7664 25° Northeast 443 510 31,000  Level Washington Center
Sat 03:29:18 PM 35.2353 -78.7019 26° Northeast 437 503 31,000  Level Washington Center
Sat 03:30:19 PM 35.3453 -78.6350 26° Northeast 432 497 31,000  Level Washington Center
Sat 03:31:19 PM 35.4428 -78.5750 27° Northeast 432 497 31,000  Level Washington Center
Sat 03:32:20 PM 35.5656 -78.5056 25° Northeast 427 491 31,000  Level Washington Center
Sat 03:33:20 PM 35.6694 -78.4428 26° Northeast 445 512 31,000  Level Washington Center
Sat 03:34:18 PM 35.7794 -78.3800 25° Northeast 445 512 31,000 -303 Level Washington Center
Sat 03:35:19 PM 35.8872 -78.3147 26° Northeast 439 505 30,400 -787 Descending Washington Center
Sat 03:36:20 PM 35.9931 -78.2492 27° Northeast 427 491 29,400 -1,210 Descending Washington Center
Sat 03:37:18 PM 36.0967 -78.1883 25° Northeast 420 483 28,000 -1,210 Descending Washington Center
Sat 03:38:19 PM 36.1958 -78.1297 25° Northeast 409 471 27,000 -492 Descending Washington Center
Sat 03:39:20 PM 36.2933 -78.0658 28° Northeast 397 457 27,000  Level Washington Center
Sat 03:40:20 PM 36.3925 -78.0097 24° Northeast 392 451 27,000  Level Washington Center
Sat 03:41:20 PM 36.5003 -77.9408 27° Northeast 386 444 27,000  Level Washington Center
Sat 03:42:18 PM 36.5975 -77.8817 26° Northeast 386 444 27,000  Level Washington Center
Sat 03:43:18 PM 36.6986 -77.8222 25° Northeast 386 444 27,000  Level Washington Center
Sat 03:44:19 PM 36.7978 -77.7603 27° Northeast 386 444 27,000  Level Washington Center
Sat 03:45:19 PM 36.8992 -77.6983 26° Northeast 386 444 27,000  Level Washington Center
Sat 03:46:20 PM 36.9983 -77.6358 27° Northeast 386 444 27,000  Level Washington Center
Sat 03:47:20 PM 37.0889 -77.5783 27° Northeast 393 452 27,000 -102 Level Washington Center
Sat 03:48:18 PM 37.1900 -77.5186 25° Northeast 393 452 26,800 -1,059 Descending Washington Center
Sat 03:49:19 PM 37.2889 -77.4558 27° Northeast 393 452 24,900 -1,835 Descending Washington Center
Sat 03:50:19 PM 37.3922 -77.3903 27° Northeast 382 440 23,100 -1,800 Descending Washington Center
Sat 03:51:19 PM 37.4828 -77.3297 28° Northeast 377 434 21,300 -1,736 Descending Washington Center
Sat 03:52:20 PM 37.5792 -77.3031 12° North 357 411 19,600 -1,714 Descending Washington Center
Sat 03:53:18 PM 37.6733 -77.2842 North 342 394 17,900 -1,563 Descending Washington Center
Sat 03:54:19 PM 37.7653 -77.2650 North 337 388 16,500 -934 Descending Washington Center
Sat 03:55:20 PM 37.8572 -77.2461 North 337 388 16,000 -248 Descending Washington Center
Sat 03:56:20 PM 37.9453 -77.2269 10° North 332 382 16,000  Level Washington Center
Sat 03:57:18 PM 38.0372 -77.2078 North 332 382 16,000 -1,119 Level Washington Center
Sat 03:58:18 PM 38.1272 -77.1939 North 327 376 13,800 -2,083 Descending Washington Center
Sat 03:59:19 PM 38.2086 -77.1719 12° North 332 382 11,800 -1,820 Descending Washington Center
Sat 04:00:20 PM 38.2922 -77.1553 North 325 374 10,100 -843 Descending Washington Center
Sat 04:01:20 PM 38.3822 -77.1386 North 309 356 10,100 -51 Level Washington Center
Sat 04:02:18 PM 38.4636 -77.1244 North 296 341 10,000  Descending Washington Center
Sat 04:03:19 PM 38.5347 -77.1072 11° North 275 316 10,100  Climbing Washington Center
Sat 04:04:19 PM 38.6017 -77.0925 10° North 255 293 10,000 -65 Descending Washington Center
Sat 04:04:51 PM 38.6500 -77.0833 North 239 275 10,000 -261 Level Potomac TRACON
Sat 04:05:51 PM 38.7167 -77.0667 11° North 241 277 9,600 -750 Descending Potomac TRACON
Sat 04:06:51 PM 38.7833 -77.0833 349° North 250 288 8,500 -1,150 Descending Potomac TRACON
Sat 04:07:51 PM 38.8333 -77.1167 333° Northwest 255 293 7,300 -1,300 Descending Potomac TRACON
Sat 04:08:51 PM 38.8833 -77.1667 322° Northwest 233 268 5,900 -1,200 Descending Potomac TRACON
Sat 04:09:46 PM 38.9167 -77.2333 303° West 229 264 5,000 -470 Descending Potomac TRACON
Sat 04:10:46 PM 38.9667 -77.2833 322° Northwest 233 268 5,000  Level Potomac TRACON
Sat 04:11:52 PM 39.0167 -77.3167 333° Northwest 219 252 5,000 -250 Level Potomac TRACON
Sat 04:12:46 PM 39.0333 -77.2667 67° East 176 203 4,500 -1,000 Descending Potomac TRACON
Sat 04:13:46 PM 39.0000 -77.2167 131° Southeast 160 184 3,100 -750 Descending Potomac TRACON
Sat 04:14:46 PM 38.9833 -77.1833 123° Southeast 153 176 3,000 -100 Descending Potomac TRACON

Login

Don't have an account? Register now (free) for customized features, flight alerts, and more!